sensor_id;sensor_type;location;lat;lon;timestamp;temperature;humidity
25320;DHT22;13256;49.012;8.610;2023-03-04T00:01:51;-0.30;99.90
25320;DHT22;13256;49.012;8.610;2023-03-04T00:04:24;-0.30;99.90
25320;DHT22;13256;49.012;8.610;2023-03-04T00:06:50;-0.40;99.90
25320;DHT22;13256;49.012;8.610;2023-03-04T00:09:20;-0.40;99.90
25320;DHT22;13256;49.012;8.610;2023-03-04T00:11:49;-0.40;99.90
25320;DHT22;13256;49.012;8.610;2023-03-04T00:14:24;-0.40;99.90
25320;DHT22;13256;49.012;8.610;2023-03-04T00:16:53;-0.40;99.90
25320;DHT22;13256;49.012;8.610;2023-03-04T00:22:33;-0.50;99.90
25320;DHT22;13256;49.012;8.610;2023-03-04T00:25:02;-0.50;99.90
25320;DHT22;13256;49.012;8.610;2023-03-04T00:27:29;-0.50;99.90
25320;DHT22;13256;49.012;8.610;2023-03-04T00:29:58;-0.50;99.90
25320;DHT22;13256;49.012;8.610;2023-03-04T00:32:58;-0.50;99.90
25320;DHT22;13256;49.012;8.610;2023-03-04T00:35:27;-0.50;99.90
25320;DHT22;13256;49.012;8.610;2023-03-04T00:37:56;-0.50;99.90
25320;DHT22;13256;49.012;8.610;2023-03-04T00:52:26;-0.70;99.90
25320;DHT22;13256;49.012;8.610;2023-03-04T00:55:08;-0.70;99.90
25320;DHT22;13256;49.012;8.610;2023-03-04T00:57:40;-0.70;99.90
25320;DHT22;13256;49.012;8.610;2023-03-04T01:00:07;-0.70;99.90
25320;DHT22;13256;49.012;8.610;2023-03-04T01:03:02;-0.70;99.90
25320;DHT22;13256;49.012;8.610;2023-03-04T01:05:30;-0.80;99.90
25320;DHT22;13256;49.012;8.610;2023-03-04T01:08:02;-0.80;99.90
25320;DHT22;13256;49.012;8.610;2023-03-04T01:10:28;-0.90;99.90
25320;DHT22;13256;49.012;8.610;2023-03-04T01:12:59;-0.90;99.90
25320;DHT22;13256;49.012;8.610;2023-03-04T01:15:33;-1.00;99.90
25320;DHT22;13256;49.012;8.610;2023-03-04T01:18:02;-1.00;99.90
25320;DHT22;13256;49.012;8.610;2023-03-04T01:20:29;-1.00;99.90
25320;DHT22;13256;49.012;8.610;2023-03-04T01:22:58;-1.00;99.90
25320;DHT22;13256;49.012;8.610;2023-03-04T01:25:25;-1.10;99.90
25320;DHT22;13256;49.012;8.610;2023-03-04T01:27:58;-1.10;99.90
25320;DHT22;13256;49.012;8.610;2023-03-04T01:30:30;-1.10;99.90
25320;DHT22;13256;49.012;8.610;2023-03-04T01:33:25;-1.10;99.90
25320;DHT22;13256;49.012;8.610;2023-03-04T01:36:00;-1.10;99.90
25320;DHT22;13256;49.012;8.610;2023-03-04T01:38:27;-1.10;99.90
25320;DHT22;13256;49.012;8.610;2023-03-04T01:40:57;-1.20;99.90
25320;DHT22;13256;49.012;8.610;2023-03-04T01:46:54;-1.30;99.90
25320;DHT22;13256;49.012;8.610;2023-03-04T01:49:26;-1.30;99.90
25320;DHT22;13256;49.012;8.610;2023-03-04T01:51:53;-1.30;99.90
25320;DHT22;13256;49.012;8.610;2023-03-04T01:54:23;-1.40;99.90
25320;DHT22;13256;49.012;8.610;2023-03-04T01:56:58;-1.40;99.90
25320;DHT22;13256;49.012;8.610;2023-03-04T01:59:31;-1.50;99.90
25320;DHT22;13256;49.012;8.610;2023-03-04T02:02:01;-1.40;99.90
25320;DHT22;13256;49.012;8.610;2023-03-04T02:04:31;-1.50;99.90
25320;DHT22;13256;49.012;8.610;2023-03-04T02:07:03;-1.50;99.90
25320;DHT22;13256;49.012;8.610;2023-03-04T02:09:33;-1.60;99.90
25320;DHT22;13256;49.012;8.610;2023-03-04T02:12:05;-1.60;99.90
25320;DHT22;13256;49.012;8.610;2023-03-04T02:14:35;-1.60;99.90
25320;DHT22;13256;49.012;8.610;2023-03-04T02:17:13;-1.60;99.90
25320;DHT22;13256;49.012;8.610;2023-03-04T02:22:16;-1.60;99.90
25320;DHT22;13256;49.012;8.610;2023-03-04T02:25:00;-1.60;99.90
25320;DHT22;13256;49.012;8.610;2023-03-04T02:28:01;-1.60;99.90
25320;DHT22;13256;49.012;8.610;2023-03-04T02:30:28;-1.60;99.90
25320;DHT22;13256;49.012;8.610;2023-03-04T02:32:58;-1.60;99.90
25320;DHT22;13256;49.012;8.610;2023-03-04T02:35:32;-1.60;99.90
25320;DHT22;13256;49.012;8.610;2023-03-04T02:38:04;-1.60;99.90
25320;DHT22;13256;49.012;8.610;2023-03-04T02:40:33;-1.60;99.90
25320;DHT22;13256;49.012;8.610;2023-03-04T02:43:07;-1.70;99.90
25320;DHT22;13256;49.012;8.610;2023-03-04T02:45:48;-1.70;99.90
25320;DHT22;13256;49.012;8.610;2023-03-04T02:48:41;-1.70;99.90
25320;DHT22;13256;49.012;8.610;2023-03-04T02:51:08;-1.70;99.90
25320;DHT22;13256;49.012;8.610;2023-03-04T02:53:38;-1.70;99.90
25320;DHT22;13256;49.012;8.610;2023-03-04T02:56:12;-1.70;99.90
25320;DHT22;13256;49.012;8.610;2023-03-04T02:58:42;-1.70;99.90
25320;DHT22;13256;49.012;8.610;2023-03-04T03:01:16;-1.70;99.90
25320;DHT22;13256;49.012;8.610;2023-03-04T03:03:45;-1.80;99.90
25320;DHT22;13256;49.012;8.610;2023-03-04T03:06:15;-1.70;99.90
25320;DHT22;13256;49.012;8.610;2023-03-04T03:09:14;-1.70;99.90
25320;DHT22;13256;49.012;8.610;2023-03-04T03:11:42;-1.80;99.90
25320;DHT22;13256;49.012;8.610;2023-03-04T03:14:10;-1.80;99.90
25320;DHT22;13256;49.012;8.610;2023-03-04T03:16:37;-1.80;99.90
25320;DHT22;13256;49.012;8.610;2023-03-04T03:19:07;-1.80;99.90
25320;DHT22;13256;49.012;8.610;2023-03-04T03:21:40;-1.70;99.90
25320;DHT22;13256;49.012;8.610;2023-03-04T03:24:34;-1.70;99.90
25320;DHT22;13256;49.012;8.610;2023-03-04T03:33:01;-1.70;99.90
25320;DHT22;13256;49.012;8.610;2023-03-04T03:35:28;-1.70;99.90
25320;DHT22;13256;49.012;8.610;2023-03-04T03:37:55;-1.60;99.90
25320;DHT22;13256;49.012;8.610;2023-03-04T03:40:26;-1.70;99.90
25320;DHT22;13256;49.012;8.610;2023-03-04T03:42:53;-1.70;99.90
25320;DHT22;13256;49.012;8.610;2023-03-04T03:45:24;-1.70;99.90
25320;DHT22;13256;49.012;8.610;2023-03-04T03:47:54;-1.70;99.90
25320;DHT22;13256;49.012;8.610;2023-03-04T03:50:48;-1.70;99.90
25320;DHT22;13256;49.012;8.610;2023-03-04T03:53:16;-1.70;99.90
25320;DHT22;13256;49.012;8.610;2023-03-04T03:55:46;-1.60;99.90
25320;DHT22;13256;49.012;8.610;2023-03-04T03:58:15;-1.60;99.90
25320;DHT22;13256;49.012;8.610;2023-03-04T04:00:43;-1.60;99.90
25320;DHT22;13256;49.012;8.610;2023-03-04T04:03:17;-1.60;99.90
25320;DHT22;13256;49.012;8.610;2023-03-04T04:05:49;-1.70;99.90
25320;DHT22;13256;49.012;8.610;2023-03-04T04:08:18;-1.70;99.90
25320;DHT22;13256;49.012;8.610;2023-03-04T04:10:47;-1.80;99.90
25320;DHT22;13256;49.012;8.610;2023-03-04T04:13:19;-1.80;99.90
25320;DHT22;13256;49.012;8.610;2023-03-04T04:15:45;-1.80;99.90
25320;DHT22;13256;49.012;8.610;2023-03-04T04:18:14;-1.80;99.90
25320;DHT22;13256;49.012;8.610;2023-03-04T04:21:11;-1.80;99.90
25320;DHT22;13256;49.012;8.610;2023-03-04T04:23:44;-1.90;99.90
25320;DHT22;13256;49.012;8.610;2023-03-04T04:26:12;-1.80;99.90
25320;DHT22;13256;49.012;8.610;2023-03-04T04:28:41;-1.90;99.90
25320;DHT22;13256;49.012;8.610;2023-03-04T04:31:20;-2.00;99.90
25320;DHT22;13256;49.012;8.610;2023-03-04T04:33:50;-2.10;99.90
25320;DHT22;13256;49.012;8.610;2023-03-04T04:36:17;-2.20;99.90
25320;DHT22;13256;49.012;8.610;2023-03-04T04:38:48;-2.30;99.90
25320;DHT22;13256;49.012;8.610;2023-03-04T04:41:25;-2.30;99.90
25320;DHT22;13256;49.012;8.610;2023-03-04T04:44:18;-2.40;99.90
25320;DHT22;13256;49.012;8.610;2023-03-04T04:46:47;-2.30;99.90
25320;DHT22;13256;49.012;8.610;2023-03-04T04:49:17;-2.30;99.90
25320;DHT22;13256;49.012;8.610;2023-03-04T04:51:49;-2.30;99.90
25320;DHT22;13256;49.012;8.610;2023-03-04T04:54:20;-2.30;99.90
25320;DHT22;13256;49.012;8.610;2023-03-04T04:56:47;-2.40;99.90
25320;DHT22;13256;49.012;8.610;2023-03-04T04:59:15;-2.40;99.90
25320;DHT22;13256;49.012;8.610;2023-03-04T05:01:43;-2.50;99.90
25320;DHT22;13256;49.012;8.610;2023-03-04T05:04:16;-2.50;99.90
25320;DHT22;13256;49.012;8.610;2023-03-04T05:06:42;-2.60;99.90
25320;DHT22;13256;49.012;8.610;2023-03-04T05:09:16;-2.70;99.90
25320;DHT22;13256;49.012;8.610;2023-03-04T05:11:42;-2.70;99.90
25320;DHT22;13256;49.012;8.610;2023-03-04T05:14:12;-2.70;99.90
25320;DHT22;13256;49.012;8.610;2023-03-04T05:16:43;-2.70;99.90
25320;DHT22;13256;49.012;8.610;2023-03-04T05:19:12;-2.70;99.90
25320;DHT22;13256;49.012;8.610;2023-03-04T05:21:39;-2.70;99.90
25320;DHT22;13256;49.012;8.610;2023-03-04T05:24:06;-2.70;99.90
25320;DHT22;13256;49.012;8.610;2023-03-04T05:26:32;-2.80;99.90
25320;DHT22;13256;49.012;8.610;2023-03-04T05:28:59;-2.80;99.90
25320;DHT22;13256;49.012;8.610;2023-03-04T05:31:26;-2.90;99.90
25320;DHT22;13256;49.012;8.610;2023-03-04T05:33:53;-2.90;99.90
25320;DHT22;13256;49.012;8.610;2023-03-04T05:36:24;-2.90;99.90
25320;DHT22;13256;49.012;8.610;2023-03-04T05:38:56;-2.90;99.90
25320;DHT22;13256;49.012;8.610;2023-03-04T05:41:25;-2.90;99.90
25320;DHT22;13256;49.012;8.610;2023-03-04T05:44:00;-3.00;99.90
25320;DHT22;13256;49.012;8.610;2023-03-04T05:46:28;-3.00;99.90
25320;DHT22;13256;49.012;8.610;2023-03-04T05:54:54;-2.90;99.90
25320;DHT22;13256;49.012;8.610;2023-03-04T05:57:22;-2.90;99.90
25320;DHT22;13256;49.012;8.610;2023-03-04T05:59:49;-2.80;99.90
25320;DHT22;13256;49.012;8.610;2023-03-04T06:02:16;-2.80;99.90
25320;DHT22;13256;49.012;8.610;2023-03-04T06:04:43;-2.70;99.90
25320;DHT22;13256;49.012;8.610;2023-03-04T06:07:13;-2.70;99.90
25320;DHT22;13256;49.012;8.610;2023-03-04T06:09:42;-2.70;99.90
25320;DHT22;13256;49.012;8.610;2023-03-04T06:12:14;-2.70;99.90
25320;DHT22;13256;49.012;8.610;2023-03-04T06:14:45;-2.80;99.90
25320;DHT22;13256;49.012;8.610;2023-03-04T06:17:14;-2.70;99.90
25320;DHT22;13256;49.012;8.610;2023-03-04T06:19:41;-2.70;99.90
25320;DHT22;13256;49.012;8.610;2023-03-04T06:22:13;-2.70;99.90
25320;DHT22;13256;49.012;8.610;2023-03-04T06:24:40;-2.80;99.90
25320;DHT22;13256;49.012;8.610;2023-03-04T06:27:06;-2.80;99.90
25320;DHT22;13256;49.012;8.610;2023-03-04T06:29:35;-2.80;99.90
25320;DHT22;13256;49.012;8.610;2023-03-04T06:32:02;-2.70;99.90
25320;DHT22;13256;49.012;8.610;2023-03-04T06:34:31;-2.60;99.90
25320;DHT22;13256;49.012;8.610;2023-03-04T06:36:59;-2.50;99.90
25320;DHT22;13256;49.012;8.610;2023-03-04T06:39:28;-2.50;99.90
25320;DHT22;13256;49.012;8.610;2023-03-04T06:41:56;-2.40;99.90
25320;DHT22;13256;49.012;8.610;2023-03-04T06:44:25;-2.20;99.90
25320;DHT22;13256;49.012;8.610;2023-03-04T06:46:51;-2.20;99.90
25320;DHT22;13256;49.012;8.610;2023-03-04T06:49:18;-2.10;99.90
25320;DHT22;13256;49.012;8.610;2023-03-04T06:51:45;-2.00;99.90
25320;DHT22;13256;49.012;8.610;2023-03-04T06:54:12;-2.00;99.90
25320;DHT22;13256;49.012;8.610;2023-03-04T06:56:57;-1.90;99.90
25320;DHT22;13256;49.012;8.610;2023-03-04T06:59:26;-1.90;99.90
25320;DHT22;13256;49.012;8.610;2023-03-04T07:01:59;-1.80;99.90
25320;DHT22;13256;49.012;8.610;2023-03-04T07:04:29;-1.70;99.90
25320;DHT22;13256;49.012;8.610;2023-03-04T07:07:00;-1.50;99.90
25320;DHT22;13256;49.012;8.610;2023-03-04T07:09:34;-1.50;99.90
25320;DHT22;13256;49.012;8.610;2023-03-04T07:12:03;-1.40;99.90
25320;DHT22;13256;49.012;8.610;2023-03-04T07:14:33;-1.40;99.90
25320;DHT22;13256;49.012;8.610;2023-03-04T07:17:10;-1.30;99.90
25320;DHT22;13256;49.012;8.610;2023-03-04T07:19:37;-1.20;99.90
25320;DHT22;13256;49.012;8.610;2023-03-04T07:22:07;-1.10;99.90
25320;DHT22;13256;49.012;8.610;2023-03-04T07:24:34;-1.10;99.90
25320;DHT22;13256;49.012;8.610;2023-03-04T07:27:16;-1.00;99.90
25320;DHT22;13256;49.012;8.610;2023-03-04T07:29:46;-0.90;99.90
25320;DHT22;13256;49.012;8.610;2023-03-04T07:32:13;-0.80;99.90
25320;DHT22;13256;49.012;8.610;2023-03-04T07:34:51;-0.70;99.90
25320;DHT22;13256;49.012;8.610;2023-03-04T07:37:18;-0.60;99.90
25320;DHT22;13256;49.012;8.610;2023-03-04T07:39:56;-0.50;99.90
25320;DHT22;13256;49.012;8.610;2023-03-04T07:42:22;-0.40;99.90
25320;DHT22;13256;49.012;8.610;2023-03-04T07:45:00;-0.30;99.90
25320;DHT22;13256;49.012;8.610;2023-03-04T07:47:27;-0.20;99.90
25320;DHT22;13256;49.012;8.610;2023-03-04T07:50:04;-0.10;99.90
25320;DHT22;13256;49.012;8.610;2023-03-04T07:52:31;0.00;99.90
25320;DHT22;13256;49.012;8.610;2023-03-04T07:54:58;0.10;99.90
25320;DHT22;13256;49.012;8.610;2023-03-04T07:57:27;0.20;99.90
25320;DHT22;13256;49.012;8.610;2023-03-04T07:59:56;0.30;99.90
25320;DHT22;13256;49.012;8.610;2023-03-04T08:02:23;0.30;99.90
25320;DHT22;13256;49.012;8.610;2023-03-04T08:04:54;0.40;99.90
25320;DHT22;13256;49.012;8.610;2023-03-04T08:07:22;0.40;99.90
25320;DHT22;13256;49.012;8.610;2023-03-04T08:09:56;0.50;99.90
25320;DHT22;13256;49.012;8.610;2023-03-04T08:12:26;0.50;99.90
25320;DHT22;13256;49.012;8.610;2023-03-04T08:14:53;0.50;99.90
25320;DHT22;13256;49.012;8.610;2023-03-04T08:17:22;0.50;99.90
25320;DHT22;13256;49.012;8.610;2023-03-04T08:19:54;0.60;99.90
25320;DHT22;13256;49.012;8.610;2023-03-04T08:22:21;0.70;99.90
25320;DHT22;13256;49.012;8.610;2023-03-04T08:24:49;0.80;99.90
25320;DHT22;13256;49.012;8.610;2023-03-04T08:27:19;0.90;99.90
25320;DHT22;13256;49.012;8.610;2023-03-04T08:29:46;1.00;99.90
25320;DHT22;13256;49.012;8.610;2023-03-04T08:32:16;1.10;99.90
25320;DHT22;13256;49.012;8.610;2023-03-04T08:34:46;1.10;99.90
25320;DHT22;13256;49.012;8.610;2023-03-04T08:37:17;1.10;99.90
25320;DHT22;13256;49.012;8.610;2023-03-04T08:39:51;1.20;99.90
25320;DHT22;13256;49.012;8.610;2023-03-04T08:42:23;1.30;99.90
25320;DHT22;13256;49.012;8.610;2023-03-04T08:44:52;1.40;99.90
25320;DHT22;13256;49.012;8.610;2023-03-04T08:47:23;1.50;99.90
25320;DHT22;13256;49.012;8.610;2023-03-04T08:49:51;1.50;99.90
25320;DHT22;13256;49.012;8.610;2023-03-04T08:52:18;1.50;99.90
25320;DHT22;13256;49.012;8.610;2023-03-04T08:54:47;1.60;99.90
25320;DHT22;13256;49.012;8.610;2023-03-04T08:57:40;1.60;99.90
25320;DHT22;13256;49.012;8.610;2023-03-04T09:00:10;1.70;99.90
25320;DHT22;13256;49.012;8.610;2023-03-04T09:02:38;1.80;99.90
25320;DHT22;13256;49.012;8.610;2023-03-04T09:05:09;2.00;99.90
25320;DHT22;13256;49.012;8.610;2023-03-04T09:07:57;2.10;99.90
25320;DHT22;13256;49.012;8.610;2023-03-04T09:10:25;2.20;99.90
25320;DHT22;13256;49.012;8.610;2023-03-04T09:12:59;2.40;99.90
25320;DHT22;13256;49.012;8.610;2023-03-04T09:15:33;2.50;99.90
25320;DHT22;13256;49.012;8.610;2023-03-04T09:18:04;2.60;99.90
25320;DHT22;13256;49.012;8.610;2023-03-04T09:20:32;2.70;99.90
25320;DHT22;13256;49.012;8.610;2023-03-04T09:23:00;2.80;99.90
25320;DHT22;13256;49.012;8.610;2023-03-04T09:25:31;2.80;99.90
25320;DHT22;13256;49.012;8.610;2023-03-04T09:27:58;2.90;99.90
25320;DHT22;13256;49.012;8.610;2023-03-04T09:30:28;3.00;99.90
25320;DHT22;13256;49.012;8.610;2023-03-04T09:32:55;3.10;99.90
25320;DHT22;13256;49.012;8.610;2023-03-04T09:35:25;3.10;99.90
25320;DHT22;13256;49.012;8.610;2023-03-04T09:37:53;3.10;99.90
25320;DHT22;13256;49.012;8.610;2023-03-04T09:40:32;3.10;99.90
25320;DHT22;13256;49.012;8.610;2023-03-04T09:43:15;3.20;99.90
25320;DHT22;13256;49.012;8.610;2023-03-04T09:45:56;3.20;99.90
25320;DHT22;13256;49.012;8.610;2023-03-04T09:48:49;3.20;99.90
25320;DHT22;13256;49.012;8.610;2023-03-04T09:56:58;3.30;99.90
25320;DHT22;13256;49.012;8.610;2023-03-04T09:59:42;3.40;99.90
25320;DHT22;13256;49.012;8.610;2023-03-04T10:02:31;3.50;99.90
25320;DHT22;13256;49.012;8.610;2023-03-04T10:05:07;3.60;99.90
25320;DHT22;13256;49.012;8.610;2023-03-04T10:07:53;3.60;99.90
25320;DHT22;13256;49.012;8.610;2023-03-04T10:10:36;3.80;99.90
25320;DHT22;13256;49.012;8.610;2023-03-04T10:13:33;3.90;99.90
25320;DHT22;13256;49.012;8.610;2023-03-04T10:16:09;4.00;99.90
25320;DHT22;13256;49.012;8.610;2023-03-04T10:18:55;4.10;99.90
25320;DHT22;13256;49.012;8.610;2023-03-04T10:24:27;4.40;99.90
25320;DHT22;13256;49.012;8.610;2023-03-04T10:27:01;4.50;99.90
25320;DHT22;13256;49.012;8.610;2023-03-04T10:29:32;4.50;99.90
25320;DHT22;13256;49.012;8.610;2023-03-04T10:34:49;4.60;99.90
25320;DHT22;13256;49.012;8.610;2023-03-04T10:37:16;4.60;99.90
25320;DHT22;13256;49.012;8.610;2023-03-04T10:39:49;4.60;99.90
25320;DHT22;13256;49.012;8.610;2023-03-04T10:44:59;4.70;99.90
25320;DHT22;13256;49.012;8.610;2023-03-04T10:47:30;4.80;99.90
25320;DHT22;13256;49.012;8.610;2023-03-04T10:50:04;4.80;99.90
25320;DHT22;13256;49.012;8.610;2023-03-04T10:52:58;4.80;99.90
25320;DHT22;13256;49.012;8.610;2023-03-04T10:55:43;4.80;99.90
25320;DHT22;13256;49.012;8.610;2023-03-04T10:58:14;4.80;99.90
25320;DHT22;13256;49.012;8.610;2023-03-04T11:01:04;4.70;99.90
25320;DHT22;13256;49.012;8.610;2023-03-04T11:03:36;4.80;99.90
25320;DHT22;13256;49.012;8.610;2023-03-04T11:08:39;4.80;99.90
25320;DHT22;13256;49.012;8.610;2023-03-04T11:11:49;4.80;99.90
25320;DHT22;13256;49.012;8.610;2023-03-04T11:17:20;4.60;99.90
25320;DHT22;13256;49.012;8.610;2023-03-04T11:19:54;4.60;99.90
25320;DHT22;13256;49.012;8.610;2023-03-04T11:22:27;4.60;99.90
25320;DHT22;13256;49.012;8.610;2023-03-04T11:26:08;4.60;99.90
25320;DHT22;13256;49.012;8.610;2023-03-04T11:28:52;4.60;99.90
25320;DHT22;13256;49.012;8.610;2023-03-04T11:31:42;4.70;99.90
25320;DHT22;13256;49.012;8.610;2023-03-04T11:40:14;4.70;99.90
25320;DHT22;13256;49.012;8.610;2023-03-04T11:50:52;4.80;99.90
25320;DHT22;13256;49.012;8.610;2023-03-04T11:56:15;4.80;99.90
25320;DHT22;13256;49.012;8.610;2023-03-04T11:59:12;4.80;99.90
25320;DHT22;13256;49.012;8.610;2023-03-04T12:10:39;4.90;99.90
25320;DHT22;13256;49.012;8.610;2023-03-04T12:16:10;5.00;99.90
25320;DHT22;13256;49.012;8.610;2023-03-04T12:27:42;5.00;99.90
25320;DHT22;13256;49.012;8.610;2023-03-04T12:33:25;5.10;99.90
25320;DHT22;13256;49.012;8.610;2023-03-04T12:36:17;5.10;99.90
25320;DHT22;13256;49.012;8.610;2023-03-04T12:38:50;5.10;99.90
25320;DHT22;13256;49.012;8.610;2023-03-04T12:54:24;5.20;99.90
25320;DHT22;13256;49.012;8.610;2023-03-04T13:05:40;5.40;99.90
25320;DHT22;13256;49.012;8.610;2023-03-04T13:16:52;5.50;99.90
25320;DHT22;13256;49.012;8.610;2023-03-04T13:19:49;5.40;99.90
25320;DHT22;13256;49.012;8.610;2023-03-04T13:22:41;5.40;99.90
25320;DHT22;13256;49.012;8.610;2023-03-04T13:25:42;5.40;99.90
25320;DHT22;13256;49.012;8.610;2023-03-04T13:28:19;5.40;99.90
25320;DHT22;13256;49.012;8.610;2023-03-04T13:36:06;5.50;99.90
25320;DHT22;13256;49.012;8.610;2023-03-04T13:38:54;5.40;99.90
25320;DHT22;13256;49.012;8.610;2023-03-04T13:41:49;5.50;99.90
25320;DHT22;13256;49.012;8.610;2023-03-04T13:45:00;5.40;99.90
25320;DHT22;13256;49.012;8.610;2023-03-04T13:47:39;5.40;99.90
25320;DHT22;13256;49.012;8.610;2023-03-04T13:51:11;5.40;99.90
25320;DHT22;13256;49.012;8.610;2023-03-04T13:53:41;5.50;99.90
25320;DHT22;13256;49.012;8.610;2023-03-04T14:01:34;5.50;99.90
25320;DHT22;13256;49.012;8.610;2023-03-04T14:04:25;5.40;99.90
25320;DHT22;13256;49.012;8.610;2023-03-04T14:07:00;5.40;99.90
25320;DHT22;13256;49.012;8.610;2023-03-04T14:09:33;5.40;99.90
25320;DHT22;13256;49.012;8.610;2023-03-04T14:12:14;5.40;99.90
25320;DHT22;13256;49.012;8.610;2023-03-04T14:14:48;5.40;99.90
25320;DHT22;13256;49.012;8.610;2023-03-04T14:17:29;5.40;99.90
25320;DHT22;13256;49.012;8.610;2023-03-04T14:19:58;5.40;99.90
25320;DHT22;13256;49.012;8.610;2023-03-04T14:22:31;5.40;99.90
25320;DHT22;13256;49.012;8.610;2023-03-04T14:28:13;5.40;99.90
25320;DHT22;13256;49.012;8.610;2023-03-04T14:31:25;5.40;99.90
25320;DHT22;13256;49.012;8.610;2023-03-04T14:33:59;5.40;99.90
25320;DHT22;13256;49.012;8.610;2023-03-04T14:36:33;5.40;99.90
25320;DHT22;13256;49.012;8.610;2023-03-04T14:39:15;5.40;99.90
25320;DHT22;13256;49.012;8.610;2023-03-04T14:41:47;5.40;99.90
25320;DHT22;13256;49.012;8.610;2023-03-04T14:44:32;5.40;99.90
25320;DHT22;13256;49.012;8.610;2023-03-04T14:47:36;5.40;99.90
25320;DHT22;13256;49.012;8.610;2023-03-04T14:50:10;5.40;99.90
25320;DHT22;13256;49.012;8.610;2023-03-04T14:52:48;5.40;99.90
25320;DHT22;13256;49.012;8.610;2023-03-04T14:55:26;5.40;99.90
25320;DHT22;13256;49.012;8.610;2023-03-04T14:58:23;5.40;99.90
25320;DHT22;13256;49.012;8.610;2023-03-04T15:01:17;5.40;99.90
25320;DHT22;13256;49.012;8.610;2023-03-04T15:04:07;5.40;99.90
25320;DHT22;13256;49.012;8.610;2023-03-04T15:06:51;5.30;99.90
25320;DHT22;13256;49.012;8.610;2023-03-04T15:09:24;5.30;99.90
25320;DHT22;13256;49.012;8.610;2023-03-04T15:12:07;5.30;99.90
25320;DHT22;13256;49.012;8.610;2023-03-04T15:14:48;5.20;99.90
25320;DHT22;13256;49.012;8.610;2023-03-04T15:17:37;5.20;99.90
25320;DHT22;13256;49.012;8.610;2023-03-04T15:25:19;5.20;99.90
25320;DHT22;13256;49.012;8.610;2023-03-04T15:30:44;5.20;99.90
25320;DHT22;13256;49.012;8.610;2023-03-04T15:45:32;5.10;99.90
25320;DHT22;13256;49.012;8.610;2023-03-04T15:48:18;5.10;99.90
25320;DHT22;13256;49.012;8.610;2023-03-04T15:51:18;5.20;99.90
25320;DHT22;13256;49.012;8.610;2023-03-04T15:54:13;5.20;99.90
25320;DHT22;13256;49.012;8.610;2023-03-04T15:56:44;5.10;99.90
25320;DHT22;13256;49.012;8.610;2023-03-04T15:59:17;5.00;99.90
25320;DHT22;13256;49.012;8.610;2023-03-04T16:01:50;5.00;99.90
25320;DHT22;13256;49.012;8.610;2023-03-04T16:04:20;5.00;99.90
25320;DHT22;13256;49.012;8.610;2023-03-04T16:07:01;4.90;99.90
25320;DHT22;13256;49.012;8.610;2023-03-04T16:09:34;4.90;99.90
25320;DHT22;13256;49.012;8.610;2023-03-04T16:12:10;4.90;99.90
25320;DHT22;13256;49.012;8.610;2023-03-04T16:14:41;4.90;99.90
25320;DHT22;13256;49.012;8.610;2023-03-04T16:17:16;4.80;99.90
25320;DHT22;13256;49.012;8.610;2023-03-04T16:19:43;4.80;99.90
25320;DHT22;13256;49.012;8.610;2023-03-04T16:22:19;4.80;99.90
25320;DHT22;13256;49.012;8.610;2023-03-04T16:24:51;4.80;99.90
25320;DHT22;13256;49.012;8.610;2023-03-04T16:27:24;4.70;99.90
25320;DHT22;13256;49.012;8.610;2023-03-04T16:29:54;4.70;99.90
25320;DHT22;13256;49.012;8.610;2023-03-04T16:32:28;4.70;99.90
25320;DHT22;13256;49.012;8.610;2023-03-04T16:34:58;4.60;99.90
25320;DHT22;13256;49.012;8.610;2023-03-04T16:37:55;4.60;99.90
25320;DHT22;13256;49.012;8.610;2023-03-04T16:40:27;4.60;99.90
25320;DHT22;13256;49.012;8.610;2023-03-04T16:42:55;4.60;99.90
25320;DHT22;13256;49.012;8.610;2023-03-04T16:45:25;4.60;99.90
25320;DHT22;13256;49.012;8.610;2023-03-04T16:47:55;4.60;99.90
25320;DHT22;13256;49.012;8.610;2023-03-04T16:52:54;4.60;99.90
25320;DHT22;13256;49.012;8.610;2023-03-04T16:55:24;4.60;99.90
25320;DHT22;13256;49.012;8.610;2023-03-04T16:57:54;4.60;99.90
25320;DHT22;13256;49.012;8.610;2023-03-04T17:00:23;4.60;99.90
25320;DHT22;13256;49.012;8.610;2023-03-04T17:02:57;4.60;99.90
25320;DHT22;13256;49.012;8.610;2023-03-04T17:05:27;4.60;99.90
25320;DHT22;13256;49.012;8.610;2023-03-04T17:07:58;4.60;99.90
25320;DHT22;13256;49.012;8.610;2023-03-04T17:10:25;4.60;99.90
25320;DHT22;13256;49.012;8.610;2023-03-04T17:12:52;4.60;99.90
25320;DHT22;13256;49.012;8.610;2023-03-04T17:15:20;4.60;99.90
25320;DHT22;13256;49.012;8.610;2023-03-04T17:17:49;4.50;99.90
25320;DHT22;13256;49.012;8.610;2023-03-04T17:20:20;4.50;99.90
25320;DHT22;13256;49.012;8.610;2023-03-04T17:22:46;4.50;99.90
25320;DHT22;13256;49.012;8.610;2023-03-04T17:25:16;4.50;99.90
25320;DHT22;13256;49.012;8.610;2023-03-04T17:28:09;4.50;99.90
25320;DHT22;13256;49.012;8.610;2023-03-04T17:30:41;4.50;99.90
25320;DHT22;13256;49.012;8.610;2023-03-04T17:33:09;4.50;99.90
25320;DHT22;13256;49.012;8.610;2023-03-04T17:35:37;4.50;99.90
25320;DHT22;13256;49.012;8.610;2023-03-04T17:38:05;4.50;99.90
25320;DHT22;13256;49.012;8.610;2023-03-04T17:40:32;4.50;99.90
25320;DHT22;13256;49.012;8.610;2023-03-04T17:42:59;4.50;99.90
25320;DHT22;13256;49.012;8.610;2023-03-04T17:45:34;4.50;99.90
25320;DHT22;13256;49.012;8.610;2023-03-04T17:48:05;4.50;99.90
25320;DHT22;13256;49.012;8.610;2023-03-04T17:50:32;4.50;99.90
25320;DHT22;13256;49.012;8.610;2023-03-04T17:52:59;4.50;99.90
25320;DHT22;13256;49.012;8.610;2023-03-04T17:55:32;4.50;99.90
25320;DHT22;13256;49.012;8.610;2023-03-04T17:58:10;4.50;99.90
25320;DHT22;13256;49.012;8.610;2023-03-04T18:00:37;4.40;99.90
25320;DHT22;13256;49.012;8.610;2023-03-04T18:03:04;4.40;99.90
25320;DHT22;13256;49.012;8.610;2023-03-04T18:06:01;4.40;99.90
25320;DHT22;13256;49.012;8.610;2023-03-04T18:08:39;4.40;99.90
25320;DHT22;13256;49.012;8.610;2023-03-04T18:11:10;4.30;99.90
25320;DHT22;13256;49.012;8.610;2023-03-04T18:13:43;4.30;99.90
25320;DHT22;13256;49.012;8.610;2023-03-04T18:16:15;4.30;99.90
25320;DHT22;13256;49.012;8.610;2023-03-04T18:19:18;4.30;99.90
25320;DHT22;13256;49.012;8.610;2023-03-04T18:21:48;4.30;99.90
25320;DHT22;13256;49.012;8.610;2023-03-04T18:24:15;4.20;99.90
25320;DHT22;13256;49.012;8.610;2023-03-04T18:26:56;4.20;99.90
25320;DHT22;13256;49.012;8.610;2023-03-04T18:29:26;4.30;99.90
25320;DHT22;13256;49.012;8.610;2023-03-04T18:31:53;4.20;99.90
25320;DHT22;13256;49.012;8.610;2023-03-04T18:34:22;4.20;99.90
25320;DHT22;13256;49.012;8.610;2023-03-04T18:36:52;4.30;99.90
25320;DHT22;13256;49.012;8.610;2023-03-04T18:39:22;4.20;99.90
25320;DHT22;13256;49.012;8.610;2023-03-04T18:42:20;4.20;99.90
25320;DHT22;13256;49.012;8.610;2023-03-04T18:44:48;4.20;99.90
25320;DHT22;13256;49.012;8.610;2023-03-04T18:47:16;4.20;99.90
25320;DHT22;13256;49.012;8.610;2023-03-04T18:49:49;4.20;99.90
25320;DHT22;13256;49.012;8.610;2023-03-04T18:52:16;4.20;99.90
25320;DHT22;13256;49.012;8.610;2023-03-04T18:54:44;4.20;99.90
25320;DHT22;13256;49.012;8.610;2023-03-04T18:57:15;4.20;99.90
25320;DHT22;13256;49.012;8.610;2023-03-04T18:59:47;4.20;99.90
25320;DHT22;13256;49.012;8.610;2023-03-04T19:02:22;4.10;99.90
25320;DHT22;13256;49.012;8.610;2023-03-04T19:04:54;4.20;99.90